New Paris, Indiana
Current Conditions -  °F | °C
As of 12:53 PM on Friday 28 Nov 2014 (Local Time) from KGSH Reporting Station
Overcast Overcast  
Wind Chill: 15°   Ceiling: 9500
Heat Index: 25°   Visibility: 10mi
Dew Point: 17°   Wind: 10mph
Humidity: 72%   Direction: 180°S
Pressure: 30.2"   Gusts: NA
Location:  41.5°N, 85.83°W
Report Text: KGSH 281753Z AUTO 18009KT 10SM SCT080 OVC095 M04/M08 A3020 RMK AO2 SNB06E17 SLP241 P0000 60000 T10391083 11039 21067 58030
Loading
Personal Weather Stations






























Interactive Weather Map New forecast layout! Learn more

10-Day Weather Forecast

Advertisements
Track Severe Weather on mobile